Time;durP1;ratioP1;P1;durP2;ratioP2;P2;SDS_P1;SDS_P2;PMS_P1;PMS_P2;Temp;Humidity;BMP_temperature;BMP_pressure;BME280_temperature;BME280_humidity;BME280_pressure;Samples;Min_cycle;Max_cycle;Signal;HPM_P1;HPM_P2
2023/11/14 00:00:21;;;;;;;18.47;17.50;;;12.40;99.90;;;;;;4925181;29;20468;-79
2023/11/14 00:02:49;;;;;;;18.93;17.70;;;12.40;1.00;;;;;;4924045;29;20581;-78
2023/11/14 00:05:17;;;;;;;18.10;16.90;;;12.40;99.90;;;;;;4921004;29;20883;-77
2023/11/14 00:07:46;;;;;;;18.87;17.97;;;12.40;99.90;;;;;;4921377;29;21147;-79
2023/11/14 00:10:14;;;;;;;18.30;17.50;;;12.40;1.00;;;;;;4924336;29;20465;-78
2023/11/14 00:12:42;;;;;;;19.07;17.77;;;12.30;99.90;;;;;;4923139;29;21047;-78
2023/11/14 00:15:12;;;;;;;18.30;17.10;;;12.30;99.90;;;;;;4919930;29;20533;-78
2023/11/14 00:17:41;;;;;;;18.17;17.17;;;12.30;1.00;;;;;;4923479;29;20850;-80
2023/11/14 00:20:10;;;;;;;18.60;17.40;;;12.30;1.00;;;;;;4921089;29;20477;-77
2023/11/14 00:22:38;;;;;;;18.23;17.20;;;12.20;99.90;;;;;;4920728;29;20481;-77
2023/11/14 00:25:07;;;;;;;17.90;17.20;;;12.20;1.00;;;;;;4925815;29;20838;-82
2023/11/14 00:27:35;;;;;;;18.17;17.23;;;12.20;23.70;;;;;;4922422;29;20478;-79
2023/11/14 00:30:06;;;;;;;18.10;17.30;;;12.20;99.90;;;;;;4923428;29;20457;-78
2023/11/14 00:32:35;;;;;;;19.23;17.77;;;12.20;71.90;;;;;;4919206;29;20461;-76
2023/11/14 00:35:04;;;;;;;17.70;17.00;;;12.20;99.90;;;;;;4926648;29;20484;-78
2023/11/14 00:37:32;;;;;;;19.03;18.10;;;12.20;99.90;;;;;;4925308;29;20505;-78
2023/11/14 00:40:01;;;;;;;18.03;17.33;;;12.20;99.90;;;;;;4926860;29;20555;-78
2023/11/14 00:42:29;;;;;;;17.87;17.07;;;12.20;99.90;;;;;;4926588;29;20492;-78
2023/11/14 00:44:57;;;;;;;18.20;17.20;;;12.20;99.90;;;;;;4924259;29;20550;-80
2023/11/14 00:47:25;;;;;;;18.07;17.00;;;12.20;1.00;;;;;;4928553;29;20505;-79
2023/11/14 00:49:55;;;;;;;18.30;17.37;;;12.20;99.90;;;;;;4922271;29;20458;-79
2023/11/14 00:52:23;;;;;;;18.67;17.57;;;12.20;99.90;;;;;;4925172;29;22919;-79
2023/11/14 00:54:51;;;;;;;18.27;17.30;;;12.20;99.90;;;;;;4926386;29;20958;-78
2023/11/14 00:57:19;;;;;;;17.97;16.97;;;12.20;1.00;;;;;;4925485;29;20485;-78
2023/11/14 00:59:47;;;;;;;18.00;17.20;;;12.20;31.70;;;;;;4926670;29;20457;-79
2023/11/14 01:02:16;;;;;;;16.70;15.90;;;12.10;99.90;;;;;;4924450;29;20457;-79
2023/11/14 01:04:44;;;;;;;17.20;16.40;;;12.10;99.90;;;;;;4924067;29;20460;-80
2023/11/14 01:07:13;;;;;;;16.77;15.97;;;12.20;1.00;;;;;;4922819;29;20566;-80
2023/11/14 01:09:42;;;;;;;17.33;16.53;;;12.20;99.90;;;;;;4939123;28;20468;-79
2023/11/14 01:12:10;;;;;;;16.53;15.50;;;12.20;1.00;;;;;;4924434;29;20461;-79
2023/11/14 01:14:39;;;;;;;16.23;15.47;;;12.10;99.90;;;;;;4925163;29;20474;-82
2023/11/14 01:17:09;;;;;;;16.60;15.60;;;12.20;1.00;;;;;;4923960;29;20481;-77
2023/11/14 01:19:39;;;;;;;16.83;15.90;;;12.20;99.90;;;;;;4925794;29;20815;-78
2023/11/14 01:22:09;;;;;;;16.30;15.27;;;12.20;99.90;;;;;;4923736;29;20470;-78
2023/11/14 01:24:38;;;;;;;16.27;15.57;;;12.20;99.90;;;;;;4926761;29;20839;-77
2023/11/14 01:27:07;;;;;;;17.00;16.00;;;12.10;99.90;;;;;;4925630;29;20473;-79
2023/11/14 01:29:35;;;;;;;17.67;16.53;;;12.20;1.00;;;;;;4923224;29;20498;-82
2023/11/14 01:32:03;;;;;;;17.07;16.10;;;12.20;1.00;;;;;;4932101;28;20454;-78
2023/11/14 01:34:31;;;;;;;16.70;16.00;;;12.20;99.90;;;;;;4925290;29;20538;-78
2023/11/14 01:37:00;;;;;;;17.07;15.90;;;12.20;1.00;;;;;;4929107;29;20543;-78
2023/11/14 01:39:29;;;;;;;16.70;16.00;;;12.10;1.00;;;;;;4930482;29;20476;-79
2023/11/14 01:41:59;;;;;;;17.00;16.10;;;12.10;1.00;;;;;;4930110;29;20461;-78
2023/11/14 01:44:27;;;;;;;16.50;15.50;;;12.10;99.90;;;;;;4928992;29;20846;-78
2023/11/14 01:46:55;;;;;;;17.63;16.27;;;12.10;1.00;;;;;;4927959;29;20473;-79
2023/11/14 01:49:25;;;;;;;17.10;16.00;;;12.10;99.90;;;;;;4924142;29;20511;-78
2023/11/14 01:51:54;;;;;;;17.03;16.20;;;12.10;1.00;;;;;;4927276;29;20461;-77
2023/11/14 01:54:24;;;;;;;16.33;15.43;;;12.10;99.90;;;;;;4925430;29;20488;-78
2023/11/14 01:56:52;;;;;;;17.17;16.13;;;12.10;1.00;;;;;;4928427;29;20842;-77
2023/11/14 01:59:23;;;;;;;16.80;15.97;;;12.00;99.90;;;;;;4926354;29;20464;-79
2023/11/14 02:01:52;;;;;;;18.17;16.70;;;12.00;1.00;;;;;;4925817;29;20469;-77
2023/11/14 02:04:23;;;;;;;17.33;16.43;;;11.90;99.90;;;;;;4928092;29;20560;-77
2023/11/14 02:06:51;;;;;;;18.13;17.13;;;11.90;40.50;;;;;;4922840;29;20461;-78
2023/11/14 02:09:20;;;;;;;16.77;16.07;;;11.90;7.80;;;;;;4923202;29;20461;-78
2023/11/14 02:11:50;;;;;;;17.20;16.13;;;11.90;99.90;;;;;;4925335;29;20472;-78
2023/11/14 02:14:18;;;;;;;16.50;15.80;;;11.90;1.00;;;;;;4929984;29;20568;-79
2023/11/14 02:16:49;;;;;;;17.90;16.60;;;11.90;99.90;;;;;;4923110;29;20463;-78
2023/11/14 02:19:17;;;;;;;17.10;16.10;;;11.80;1.00;;;;;;4925199;29;20546;-78
2023/11/14 02:21:46;;;;;;;17.87;16.57;;;11.90;99.90;;;;;;4924167;29;20576;-77
2023/11/14 02:24:16;;;;;;;17.70;16.37;;;11.80;99.90;;;;;;4922393;29;20838;-81
2023/11/14 02:26:47;;;;;;;18.23;16.70;;;11.80;1.00;;;;;;4921883;29;20963;-79
2023/11/14 02:29:16;;;;;;;16.80;16.00;;;11.80;1.00;;;;;;4921674;29;20472;-78
2023/11/14 02:31:45;;;;;;;18.30;17.60;;;11.80;99.90;;;;;;4922711;29;20462;-78
2023/11/14 02:34:13;;;;;;;17.60;16.37;;;11.80;99.90;;;;;;4924343;29;20473;-78
2023/11/14 02:36:41;;;;;;;17.23;16.07;;;11.80;99.90;;;;;;4924287;29;20461;-78
2023/11/14 02:39:10;;;;;;;18.20;17.20;;;11.80;1.00;;;;;;4924106;29;20469;-79
2023/11/14 02:41:38;;;;;;;17.83;16.73;;;11.70;1.00;;;;;;4924580;29;20474;-78
2023/11/14 02:44:08;;;;;;;17.00;16.30;;;11.70;1.00;;;;;;4927201;29;20958;-78
2023/11/14 02:46:37;;;;;;;17.80;16.50;;;11.70;99.90;;;;;;4925929;29;20489;-77
2023/11/14 02:49:23;;;;;;;18.13;16.97;;;11.70;99.90;;;;;;4923737;29;21227;-82
2023/11/14 02:51:51;;;;;;;16.90;16.20;;;11.70;99.90;;;;;;4923882;29;20461;-77
2023/11/14 02:54:19;;;;;;;18.30;17.30;;;11.70;1.00;;;;;;4924439;29;21083;-77
2023/11/14 02:56:47;;;;;;;18.00;17.00;;;11.70;96.20;;;;;;4925812;29;20465;-77
2023/11/14 02:59:19;;;;;;;17.53;16.80;;;11.70;1.00;;;;;;4921768;29;20481;-77
2023/11/14 03:01:47;;;;;;;17.63;16.87;;;11.60;1.00;;;;;;4926098;29;21007;-80
2023/11/14 03:04:15;;;;;;;18.60;17.50;;;11.60;99.90;;;;;;4927131;29;20465;-79
2023/11/14 03:06:43;;;;;;;17.70;16.80;;;11.60;1.00;;;;;;4925207;29;20469;-80
2023/11/14 03:09:13;;;;;;;17.97;17.27;;;11.50;1.00;;;;;;4922884;29;20496;-79
2023/11/14 03:11:41;;;;;;;17.33;16.63;;;11.50;31.40;;;;;;4923512;29;20449;-80
2023/11/14 03:14:09;;;;;;;17.33;16.53;;;11.50;99.90;;;;;;4920845;29;20466;-79
2023/11/14 03:16:39;;;;;;;18.00;16.80;;;11.40;99.90;;;;;;4920206;29;21208;-79
2023/11/14 03:19:07;;;;;;;16.80;16.27;;;11.40;99.90;;;;;;4922390;29;20454;-79
2023/11/14 03:21:41;;;;;;;18.13;16.70;;;11.40;99.90;;;;;;4922215;29;20448;-79
2023/11/14 03:24:10;;;;;;;18.00;16.90;;;11.30;99.90;;;;;;4924222;29;20465;-81
2023/11/14 03:26:38;;;;;;;17.50;16.50;;;11.40;99.90;;;;;;4921970;29;20468;-82
2023/11/14 03:29:06;;;;;;;18.03;17.13;;;11.40;99.90;;;;;;4920366;29;20450;-81
2023/11/14 03:31:34;;;;;;;17.90;16.90;;;11.40;99.90;;;;;;4923106;29;20534;-78
2023/11/14 03:34:05;;;;;;;17.13;16.40;;;11.30;99.90;;;;;;4924054;29;20450;-80
2023/11/14 03:36:33;;;;;;;18.20;16.80;;;11.30;99.90;;;;;;4921208;29;20481;-82
2023/11/14 03:39:01;;;;;;;17.03;16.30;;;11.30;99.90;;;;;;4922490;29;20588;-82
2023/11/14 03:41:29;;;;;;;18.17;16.87;;;11.30;99.90;;;;;;4924821;29;20468;-78
2023/11/14 03:43:57;;;;;;;17.27;16.27;;;11.30;99.90;;;;;;4919666;29;20446;-81
2023/11/14 03:46:25;;;;;;;17.50;16.70;;;11.20;99.90;;;;;;4923896;29;20453;-79
2023/11/14 03:48:53;;;;;;;17.43;16.63;;;11.30;99.90;;;;;;4924545;29;20496;-79
2023/11/14 03:51:24;;;;;;;18.43;17.50;;;11.30;99.90;;;;;;4923843;29;20468;-79
2023/11/14 03:53:52;;;;;;;17.07;16.37;;;11.30;99.90;;;;;;4926962;29;20477;-83
2023/11/14 03:56:20;;;;;;;16.00;15.37;;;11.30;99.90;;;;;;4921119;29;21007;-79
2023/11/14 03:58:49;;;;;;;15.97;15.30;;;11.30;99.90;;;;;;4922387;29;20477;-77
2023/11/14 04:01:17;;;;;;;16.30;15.40;;;11.40;99.90;;;;;;4920532;29;20469;-80
2023/11/14 04:03:45;;;;;;;15.67;14.87;;;11.40;99.90;;;;;;4920559;29;20956;-78
2023/11/14 04:06:13;;;;;;;16.63;15.17;;;11.40;99.90;;;;;;4923319;29;21212;-79
2023/11/14 04:08:43;;;;;;;15.87;15.00;;;11.40;99.90;;;;;;4920795;29;20851;-78
2023/11/14 04:11:12;;;;;;;16.07;15.20;;;11.40;99.90;;;;;;4921751;29;20505;-79
2023/11/14 04:13:41;;;;;;;16.20;15.20;;;11.40;99.90;;;;;;4925093;29;20462;-79
2023/11/14 04:16:09;;;;;;;16.73;15.40;;;11.30;99.90;;;;;;4926370;29;20491;-79
2023/11/14 04:18:38;;;;;;;15.80;15.20;;;11.40;99.90;;;;;;4925959;29;21037;-80
2023/11/14 04:21:06;;;;;;;15.50;14.80;;;11.40;99.90;;;;;;4924409;29;20470;-79
2023/11/14 04:23:34;;;;;;;16.23;15.43;;;11.40;99.90;;;;;;4926819;29;21226;-79
2023/11/14 04:26:04;;;;;;;15.50;14.90;;;11.40;99.90;;;;;;4926972;29;20570;-78
2023/11/14 04:28:32;;;;;;;16.10;15.30;;;11.40;99.90;;;;;;4926415;29;20481;-79
2023/11/14 04:31:00;;;;;;;15.70;15.20;;;11.40;99.90;;;;;;4926006;29;20533;-78
2023/11/14 04:33:29;;;;;;;16.03;15.33;;;11.40;99.90;;;;;;4921491;29;20619;-79
2023/11/14 04:35:57;;;;;;;16.27;15.40;;;11.40;99.90;;;;;;4925076;29;21174;-79
2023/11/14 04:38:25;;;;;;;16.30;15.60;;;11.40;99.90;;;;;;4926000;29;20481;-79
2023/11/14 04:40:53;;;;;;;16.17;15.40;;;11.40;99.90;;;;;;4926625;29;20465;-79
2023/11/14 04:43:23;;;;;;;16.50;15.60;;;11.40;99.90;;;;;;4923755;29;20457;-79
2023/11/14 04:45:51;;;;;;;16.20;15.30;;;11.40;99.90;;;;;;4926401;29;20468;-79
2023/11/14 04:48:19;;;;;;;16.60;15.60;;;11.30;99.90;;;;;;4922781;29;20491;-79
2023/11/14 04:50:47;;;;;;;15.80;15.13;;;11.30;99.90;;;;;;4925304;29;20487;-79
2023/11/14 04:53:15;;;;;;;16.57;15.67;;;11.30;99.90;;;;;;4924910;29;20540;-78
2023/11/14 04:55:43;;;;;;;16.17;15.40;;;11.30;99.90;;;;;;4921706;29;20486;-80
2023/11/14 04:58:12;;;;;;;16.67;15.83;;;11.30;1.00;;;;;;4923019;29;20473;-79
2023/11/14 05:00:42;;;;;;;16.67;15.60;;;11.40;1.00;;;;;;4918000;29;20548;-78
2023/11/14 05:03:10;;;;;;;16.47;15.67;;;11.40;1.00;;;;;;4925229;29;20488;-80
2023/11/14 05:05:38;;;;;;;15.43;14.73;;;11.40;99.90;;;;;;4923007;29;20500;-78
2023/11/14 05:08:06;;;;;;;16.77;15.80;;;11.40;99.90;;;;;;4922919;29;20905;-79
2023/11/14 05:10:34;;;;;;;15.23;14.50;;;11.40;99.90;;;;;;4927160;29;20477;-79
2023/11/14 05:13:06;;;;;;;15.70;15.00;;;11.40;1.00;;;;;;4926268;29;20457;-79
2023/11/14 05:15:34;;;;;;;15.90;15.20;;;11.30;99.90;;;;;;4925983;29;20481;-81
2023/11/14 05:18:04;;;;;;;17.20;15.60;;;11.30;10.60;;;;;;4928379;29;20492;-78
2023/11/14 05:20:32;;;;;;;16.33;15.53;;;11.40;99.90;;;;;;4926666;29;20469;-77
2023/11/14 05:23:01;;;;;;;16.47;15.53;;;11.40;1.00;;;;;;4925784;29;20934;-78
2023/11/14 05:25:29;;;;;;;17.53;16.60;;;11.30;6.90;;;;;;4928059;29;21269;-78
2023/11/14 05:27:58;;;;;;;15.53;15.03;;;11.30;1.00;;;;;;4927403;29;20579;-80
2023/11/14 05:30:26;;;;;;;15.60;15.00;;;11.30;1.00;;;;;;4929208;29;20445;-79
2023/11/14 05:32:54;;;;;;;15.80;15.17;;;11.30;1.00;;;;;;4923251;29;20480;-80
2023/11/14 05:35:23;;;;;;;16.70;15.80;;;11.30;1.00;;;;;;4923858;29;20461;-80
2023/11/14 05:37:51;;;;;;;15.30;14.60;;;11.20;1.00;;;;;;4923482;29;20477;-79
2023/11/14 05:40:20;;;;;;;16.83;15.93;;;11.30;95.80;;;;;;4924551;29;20952;-79
2023/11/14 05:42:48;;;;;;;16.50;15.87;;;11.30;1.00;;;;;;4923819;29;20480;-82
2023/11/14 05:45:16;;;;;;;17.87;16.93;;;11.30;99.90;;;;;;4929629;29;20464;-81
2023/11/14 05:47:44;;;;;;;15.60;14.80;;;11.30;62.60;;;;;;4925634;29;20941;-80
2023/11/14 05:50:13;;;;;;;15.40;14.73;;;11.30;99.90;;;;;;4926270;29;20467;-79
2023/11/14 05:52:42;;;;;;;15.70;14.90;;;11.30;26.30;;;;;;4923040;29;20532;-80
2023/11/14 05:55:10;;;;;;;15.50;14.80;;;11.30;1.00;;;;;;4926631;29;20457;-83
2023/11/14 05:57:38;;;;;;;16.00;15.20;;;11.30;1.00;;;;;;4923325;29;20583;-78
2023/11/14 06:00:11;;;;;;;20.03;18.83;;;11.30;1.00;;;;;;4928175;29;20581;-80
2023/11/14 06:02:39;;;;;;;16.93;15.87;;;11.30;1.00;;;;;;4923365;29;20484;-79
2023/11/14 06:05:08;;;;;;;18.10;16.97;;;11.20;48.00;;;;;;4923255;29;20459;-77
2023/11/14 06:07:37;;;;;;;16.57;15.80;;;11.20;1.00;;;;;;4918317;29;20595;-79
2023/11/14 06:10:08;;;;;;;16.70;15.70;;;11.10;99.90;;;;;;4924308;29;20825;-79
2023/11/14 06:12:39;;;;;;;16.43;15.43;;;11.10;99.90;;;;;;4928980;29;20460;-80
2023/11/14 06:15:08;;;;;;;15.73;15.00;;;11.10;99.90;;;;;;4925944;29;20566;-80
2023/11/14 06:17:37;;;;;;;16.03;15.43;;;11.10;99.90;;;;;;4919891;29;21009;-79
2023/11/14 06:20:07;;;;;;;15.93;15.33;;;11.10;99.90;;;;;;4926051;29;20454;-81
2023/11/14 06:22:35;;;;;;;16.20;15.60;;;11.10;1.00;;;;;;4923625;29;20462;-80
2023/11/14 06:25:04;;;;;;;16.03;15.20;;;11.10;1.00;;;;;;4925361;29;20458;-80
2023/11/14 06:27:34;;;;;;;16.00;15.10;;;11.10;99.90;;;;;;4921864;29;20959;-80
2023/11/14 06:30:02;;;;;;;16.00;15.30;;;11.10;1.00;;;;;;4927401;29;20894;-79
2023/11/14 06:32:30;;;;;;;16.07;15.37;;;11.10;1.00;;;;;;4928121;29;20450;-80
2023/11/14 06:34:58;;;;;;;15.03;14.60;;;11.00;99.90;;;;;;4924097;29;20463;-79
2023/11/14 06:37:26;;;;;;;15.73;15.07;;;11.10;99.90;;;;;;4927027;29;20592;-81
2023/11/14 06:39:55;;;;;;;16.30;15.50;;;11.00;1.00;;;;;;4926121;29;20698;-79
2023/11/14 06:42:23;;;;;;;16.07;15.27;;;11.00;1.00;;;;;;4926787;29;20461;-78
2023/11/14 06:44:53;;;;;;;15.43;14.73;;;11.10;1.00;;;;;;4926100;29;20464;-80
2023/11/14 06:47:21;;;;;;;15.43;15.03;;;11.00;99.90;;;;;;4926645;29;20474;-78
2023/11/14 06:49:49;;;;;;;15.50;15.00;;;11.00;99.90;;;;;;4923579;29;20462;-81
2023/11/14 06:52:17;;;;;;;16.30;15.70;;;11.00;99.90;;;;;;4924759;29;20565;-79
2023/11/14 06:54:45;;;;;;;15.20;14.70;;;11.00;1.00;;;;;;4924933;29;20973;-83
2023/11/14 06:57:13;;;;;;;16.23;15.50;;;11.00;32.70;;;;;;4922880;29;20547;-79
2023/11/14 06:59:41;;;;;;;15.37;14.87;;;10.90;99.90;;;;;;4926431;29;20461;-80
2023/11/14 07:02:11;;;;;;;15.63;14.83;;;11.00;99.90;;;;;;4924441;29;20465;-78
2023/11/14 07:04:39;;;;;;;15.90;15.20;;;11.00;91.70;;;;;;4921879;29;20860;-78
2023/11/14 07:07:07;;;;;;;16.93;15.37;;;10.90;99.90;;;;;;4920721;29;20469;-78
2023/11/14 07:09:35;;;;;;;15.73;15.17;;;10.90;99.90;;;;;;4924568;29;20729;-80
2023/11/14 07:12:04;;;;;;;15.90;15.10;;;10.90;99.90;;;;;;4925192;29;20459;-80
2023/11/14 07:14:32;;;;;;;15.80;15.40;;;11.00;1.00;;;;;;4925422;29;20548;-79
2023/11/14 07:17:00;;;;;;;15.63;15.03;;;10.90;99.90;;;;;;4920097;29;20573;-80
2023/11/14 07:19:30;;;;;;;15.60;14.87;;;11.00;95.30;;;;;;4922985;29;20449;-79
2023/11/14 07:21:58;;;;;;;15.20;14.70;;;11.00;1.00;;;;;;4927064;29;20465;-79
2023/11/14 07:24:26;;;;;;;15.63;15.10;;;11.00;1.00;;;;;;4924196;29;20470;-79
2023/11/14 07:26:54;;;;;;;15.10;14.63;;;11.00;99.90;;;;;;4924236;29;21052;-78
2023/11/14 07:29:23;;;;;;;15.60;15.10;;;11.00;1.00;;;;;;4924386;29;20480;-79
2023/11/14 07:31:53;;;;;;;15.10;14.60;;;11.00;99.90;;;;;;4920844;29;20544;-79
2023/11/14 07:34:22;;;;;;;16.23;15.63;;;11.10;22.40;;;;;;4922555;29;20497;-80
2023/11/14 07:36:52;;;;;;;15.73;15.00;;;11.00;1.00;;;;;;4922754;29;20482;-78
2023/11/14 07:39:23;;;;;;;16.20;15.20;;;11.10;1.00;;;;;;4924595;29;20470;-77
2023/11/14 07:41:52;;;;;;;16.93;16.00;;;11.00;1.00;;;;;;4923050;29;20545;-79
2023/11/14 07:44:20;;;;;;;15.10;14.50;;;11.00;1.00;;;;;;4921344;29;20485;-80
2023/11/14 07:46:48;;;;;;;15.27;14.53;;;11.00;1.00;;;;;;4922100;29;20454;-79
2023/11/14 07:49:17;;;;;;;15.00;14.60;;;11.00;99.90;;;;;;4925586;29;20564;-79
2023/11/14 07:51:45;;;;;;;15.53;14.40;;;11.00;99.90;;;;;;4921246;29;20488;-80
2023/11/14 07:54:16;;;;;;;15.00;14.50;;;11.00;99.90;;;;;;4921680;29;20876;-81
2023/11/14 07:56:44;;;;;;;15.40;14.97;;;11.00;1.00;;;;;;4923429;29;20465;-80
2023/11/14 07:59:12;;;;;;;15.13;14.67;;;11.00;48.60;;;;;;4924925;29;20462;-80
2023/11/14 08:01:41;;;;;;;14.53;14.03;;;11.00;99.90;;;;;;4923015;29;21022;-79
2023/11/14 08:04:10;;;;;;;15.10;14.30;;;11.00;99.90;;;;;;4926401;29;20457;-78
2023/11/14 08:06:39;;;;;;;14.77;14.37;;;10.90;1.00;;;;;;4920902;29;20548;-79
2023/11/14 08:09:09;;;;;;;15.20;14.20;;;10.90;1.00;;;;;;4920658;29;20469;-79
2023/11/14 08:11:42;;;;;;;15.00;14.50;;;11.00;99.90;;;;;;4920715;29;20466;-78
2023/11/14 08:14:10;;;;;;;15.30;14.63;;;11.00;1.00;;;;;;4924305;29;21006;-77
2023/11/14 08:16:39;;;;;;;15.83;14.73;;;10.90;1.00;;;;;;4921098;29;20468;-80
2023/11/14 08:19:07;;;;;;;15.00;14.50;;;11.00;99.90;;;;;;4922551;29;20489;-78
2023/11/14 08:21:35;;;;;;;14.93;14.33;;;11.00;1.00;;;;;;4923901;29;20860;-79
2023/11/14 08:24:04;;;;;;;14.87;14.47;;;11.00;1.00;;;;;;4923141;29;20476;-77
2023/11/14 08:26:32;;;;;;;14.77;14.23;;;11.00;99.90;;;;;;4923999;29;20471;-80
2023/11/14 08:29:02;;;;;;;15.07;14.57;;;11.00;99.90;;;;;;4923298;29;20470;-77
2023/11/14 08:31:30;;;;;;;14.70;14.30;;;11.00;99.90;;;;;;4919952;29;20518;-78
2023/11/14 08:33:59;;;;;;;14.70;14.20;;;11.00;99.90;;;;;;4924964;29;20960;-78
2023/11/14 08:36:27;;;;;;;15.20;14.60;;;11.00;1.00;;;;;;4921632;29;20522;-78
2023/11/14 08:38:55;;;;;;;15.10;14.50;;;11.00;99.90;;;;;;4923432;29;20499;-78
2023/11/14 08:41:23;;;;;;;15.20;14.80;;;11.00;96.00;;;;;;4921617;29;20938;-80
2023/11/14 08:43:52;;;;;;;14.63;14.13;;;11.00;1.00;;;;;;4926301;29;20461;-80
2023/11/14 08:46:21;;;;;;;14.53;14.03;;;10.90;1.00;;;;;;4924481;29;20477;-77
2023/11/14 08:48:49;;;;;;;14.93;14.53;;;11.00;99.90;;;;;;4925780;29;20991;-79
2023/11/14 08:51:17;;;;;;;14.73;14.20;;;10.90;1.00;;;;;;4919356;29;21200;-78
2023/11/14 08:53:45;;;;;;;14.57;14.00;;;11.00;99.90;;;;;;4922564;29;20466;-80
2023/11/14 08:56:13;;;;;;;14.80;14.40;;;10.90;99.90;;;;;;4923164;29;20458;-79
2023/11/14 08:58:42;;;;;;;14.47;14.07;;;11.00;1.00;;;;;;4922994;29;20470;-79
2023/11/14 09:01:11;;;;;;;14.70;14.30;;;10.90;99.90;;;;;;4920177;29;20466;-81
2023/11/14 09:03:41;;;;;;;14.53;13.97;;;10.90;1.00;;;;;;4922048;29;20457;-77
2023/11/14 09:06:10;;;;;;;14.73;14.33;;;11.00;1.00;;;;;;4923551;29;20467;-78
2023/11/14 09:08:39;;;;;;;14.63;14.13;;;10.90;99.90;;;;;;4925243;29;20489;-79
2023/11/14 09:11:07;;;;;;;14.93;14.23;;;11.00;99.90;;;;;;4922363;29;20542;-78
2023/11/14 09:13:36;;;;;;;14.37;13.80;;;10.90;99.90;;;;;;4921454;29;21117;-81
2023/11/14 09:16:09;;;;;;;14.57;14.17;;;10.80;99.90;;;;;;4924401;29;20837;-79
2023/11/14 09:18:38;;;;;;;14.40;14.00;;;10.80;99.90;;;;;;4924348;29;20485;-78
2023/11/14 09:21:08;;;;;;;14.33;14.03;;;10.90;99.90;;;;;;4923123;29;20468;-79
2023/11/14 09:23:38;;;;;;;14.23;13.93;;;10.90;99.90;;;;;;4922704;29;20477;-82
2023/11/14 09:26:07;;;;;;;15.30;14.67;;;10.90;99.90;;;;;;4923277;29;21197;-79
2023/11/14 09:28:36;;;;;;;14.30;14.00;;;10.90;99.90;;;;;;4922401;29;20492;-80
2023/11/14 09:31:04;;;;;;;15.00;14.60;;;10.90;97.50;;;;;;4921550;29;20489;-78
2023/11/14 09:33:35;;;;;;;14.20;13.90;;;10.90;1.00;;;;;;4919540;29;20464;-78
2023/11/14 09:36:04;;;;;;;15.00;14.30;;;10.90;11.00;;;;;;4925395;29;20520;-80
2023/11/14 09:38:33;;;;;;;15.87;14.67;;;10.90;99.90;;;;;;4922009;29;20480;-78
2023/11/14 09:41:02;;;;;;;14.63;14.13;;;10.90;1.00;;;;;;4920513;29;20465;-78
2023/11/14 09:43:30;;;;;;;14.90;14.30;;;10.90;1.00;;;;;;4924264;29;20518;-78
2023/11/14 09:45:59;;;;;;;15.03;14.43;;;10.90;1.00;;;;;;4922930;29;20509;-79
2023/11/14 09:48:27;;;;;;;13.97;13.57;;;10.90;1.00;;;;;;4922192;29;20482;-80
2023/11/14 09:50:55;;;;;;;14.30;13.80;;;11.00;1.00;;;;;;4922173;29;20545;-79
2023/11/14 09:53:24;;;;;;;14.67;14.03;;;11.00;1.00;;;;;;4922884;29;20537;-79
2023/11/14 09:55:54;;;;;;;14.40;13.97;;;11.00;1.00;;;;;;4924169;29;20521;-78
2023/11/14 09:58:22;;;;;;;15.13;14.30;;;11.10;99.90;;;;;;4925437;29;20502;-79
2023/11/14 10:00:50;;;;;;;14.70;14.30;;;11.00;99.90;;;;;;4927449;29;20469;-78
2023/11/14 10:03:18;;;;;;;14.70;14.07;;;11.10;99.90;;;;;;4923122;29;20469;-78
2023/11/14 10:05:47;;;;;;;14.17;13.73;;;11.00;99.90;;;;;;4927530;29;20827;-77
2023/11/14 10:08:16;;;;;;;14.50;14.00;;;11.00;99.90;;;;;;4926514;29;20476;-79
2023/11/14 10:11:06;;;;;;;13.87;13.47;;;10.90;1.00;;;;;;4923276;29;20466;-79
2023/11/14 10:13:35;;;;;;;14.40;13.97;;;10.90;1.00;;;;;;4926015;29;20461;-78
2023/11/14 10:16:18;;;;;;;14.50;14.00;;;10.90;1.00;;;;;;4927352;29;20454;-78
2023/11/14 10:18:49;;;;;;;14.00;13.53;;;10.90;1.00;;;;;;4924550;29;20568;-77
2023/11/14 10:21:27;;;;;;;14.53;14.13;;;10.90;1.00;;;;;;4921504;29;20480;-79
2023/11/14 10:23:59;;;;;;;14.50;14.10;;;10.90;1.00;;;;;;4927951;29;20449;-79
2023/11/14 10:26:29;;;;;;;15.83;15.30;;;10.90;1.00;;;;;;4925886;29;20459;-80
2023/11/14 10:29:00;;;;;;;14.83;14.30;;;11.00;99.90;;;;;;4925158;29;20473;-79
2023/11/14 10:31:39;;;;;;;13.70;13.40;;;11.00;99.90;;;;;;4929394;29;21013;-77
2023/11/14 10:34:08;;;;;;;14.60;14.10;;;10.90;99.90;;;;;;4924984;29;20450;-78
2023/11/14 10:36:47;;;;;;;13.80;13.50;;;10.90;1.00;;;;;;4924574;29;20445;-78
2023/11/14 10:39:15;;;;;;;14.17;13.63;;;10.90;1.00;;;;;;4925791;29;20473;-79
2023/11/14 10:41:45;;;;;;;13.97;13.67;;;10.90;1.00;;;;;;4921170;29;20466;-77
2023/11/14 10:44:14;;;;;;;14.40;14.00;;;10.90;1.00;;;;;;4925426;29;20468;-77
2023/11/14 10:46:49;;;;;;;14.13;13.70;;;10.90;1.00;;;;;;4922990;29;20492;-77
2023/11/14 10:49:18;;;;;;;14.10;13.60;;;10.90;1.00;;;;;;4925093;29;21285;-79
2023/11/14 10:51:48;;;;;;;14.43;14.03;;;11.00;1.00;;;;;;4924226;29;20468;-77
2023/11/14 10:54:17;;;;;;;15.30;14.87;;;11.00;1.00;;;;;;4925994;29;20524;-79
2023/11/14 10:56:47;;;;;;;15.10;14.43;;;11.10;1.00;;;;;;4923217;29;20512;-81
2023/11/14 10:59:25;;;;;;;14.27;13.87;;;11.10;1.00;;;;;;4926354;29;20473;-78
2023/11/14 11:01:53;;;;;;;14.80;14.20;;;11.10;1.00;;;;;;4923832;29;20877;-78
2023/11/14 11:04:22;;;;;;;13.90;13.60;;;11.10;1.00;;;;;;4927083;29;20546;-78
2023/11/14 11:06:50;;;;;;;15.60;14.60;;;11.20;1.00;;;;;;4921643;29;20454;-78
2023/11/14 11:09:19;;;;;;;14.10;13.80;;;11.20;1.00;;;;;;4927953;29;21021;-78
2023/11/14 11:11:52;;;;;;;14.40;14.00;;;11.20;1.00;;;;;;4924053;29;20466;-78
2023/11/14 11:14:22;;;;;;;14.63;14.20;;;11.20;1.00;;;;;;4922857;29;20843;-79
2023/11/14 11:16:52;;;;;;;15.07;14.47;;;11.30;1.00;;;;;;4927692;29;20461;-77
2023/11/14 11:19:26;;;;;;;16.67;15.30;;;11.30;99.90;;;;;;4925197;29;20473;-78
2023/11/14 11:22:04;;;;;;;14.80;14.17;;;11.30;1.00;;;;;;4928446;29;20461;-78
2023/11/14 11:24:33;;;;;;;15.03;14.43;;;11.40;99.90;;;;;;4920709;29;20466;-78
2023/11/14 11:27:20;;;;;;;15.00;14.17;;;11.40;99.90;;;;;;4923121;29;20940;-79
2023/11/14 11:30:07;;;;;;;14.33;13.83;;;11.40;99.90;;;;;;4922347;29;20485;-80
2023/11/14 11:32:37;;;;;;;14.17;13.67;;;11.40;99.90;;;;;;4922607;29;20459;-78
2023/11/14 11:35:30;;;;;;;14.10;13.50;;;11.50;99.90;;;;;;4926403;29;20508;-78
2023/11/14 11:38:07;;;;;;;14.00;13.60;;;11.50;91.80;;;;;;4924054;29;20473;-78
2023/11/14 11:40:36;;;;;;;14.33;13.83;;;11.50;99.90;;;;;;4919846;29;20492;-79
2023/11/14 11:43:19;;;;;;;14.37;13.97;;;11.50;1.00;;;;;;4921027;29;20464;-80
2023/11/14 11:45:50;;;;;;;14.67;14.10;;;11.50;20.70;;;;;;4922728;29;20513;-78
2023/11/14 11:48:31;;;;;;;15.03;14.40;;;11.50;99.90;;;;;;4925499;29;20481;-78
2023/11/14 11:51:19;;;;;;;14.63;14.17;;;11.40;99.90;;;;;;4924710;29;20933;-78
2023/11/14 11:53:49;;;;;;;14.80;14.30;;;11.30;99.90;;;;;;4925210;29;20828;-78
2023/11/14 11:56:40;;;;;;;15.87;14.67;;;11.30;99.90;;;;;;4925308;29;20464;-80
2023/11/14 11:59:10;;;;;;;14.83;14.27;;;11.40;99.90;;;;;;4921753;29;20995;-78
2023/11/14 12:01:48;;;;;;;14.03;13.63;;;11.40;99.90;;;;;;4926581;29;20473;-77
2023/11/14 12:04:17;;;;;;;14.23;13.73;;;11.50;99.90;;;;;;4922972;29;20461;-79
2023/11/14 12:06:46;;;;;;;15.90;15.20;;;11.40;99.90;;;;;;4922073;29;20466;-80
2023/11/14 12:09:15;;;;;;;14.30;13.70;;;11.50;7.90;;;;;;4916978;29;20559;-78
2023/11/14 12:11:43;;;;;;;13.80;13.40;;;11.50;52.20;;;;;;4922559;29;20460;-79
2023/11/14 12:14:12;;;;;;;14.40;13.73;;;11.50;1.00;;;;;;4924740;29;20462;-80
2023/11/14 12:16:40;;;;;;;14.20;13.80;;;11.50;1.00;;;;;;4922662;29;20463;-77
2023/11/14 12:19:08;;;;;;;15.10;14.40;;;11.50;1.00;;;;;;4921434;29;20492;-78
2023/11/14 12:21:37;;;;;;;14.10;13.50;;;11.50;1.00;;;;;;4921826;29;20449;-78
2023/11/14 12:24:06;;;;;;;14.50;13.70;;;11.50;1.00;;;;;;4923813;29;20456;-79
2023/11/14 12:26:35;;;;;;;14.27;13.87;;;11.50;99.90;;;;;;4923888;29;20454;-79
2023/11/14 12:29:07;;;;;;;14.50;13.90;;;11.50;99.90;;;;;;4925678;29;20487;-79
2023/11/14 12:31:37;;;;;;;15.90;14.80;;;11.50;1.00;;;;;;4922003;29;20458;-79
2023/11/14 12:34:08;;;;;;;14.43;13.80;;;11.50;1.00;;;;;;4925102;29;20505;-77
2023/11/14 12:36:36;;;;;;;14.50;13.90;;;11.50;99.90;;;;;;4920605;29;20441;-80
2023/11/14 12:39:15;;;;;;;14.70;14.10;;;11.50;99.90;;;;;;4917172;29;20480;-77
2023/11/14 12:41:45;;;;;;;14.50;13.83;;;11.40;99.90;;;;;;4921597;29;20519;-78